Time;durP1;ratioP1;P1;durP2;ratioP2;P2;SDS_P1;SDS_P2;PMS_P1;PMS_P2;Temp;Humidity;BMP_temperature;BMP_pressure;BME280_temperature;BME280_humidity;BME280_pressure;Samples;Min_cycle;Max_cycle;Signal;HPM_P1;HPM_P2
2021/03/21 00:00:52;;;;;;;5.68;2.97;;;9.00;89.00;;;;;;5072580;28;20032;-65
2021/03/21 00:03:19;;;;;;;8.65;2.38;;;9.00;89.00;;;;;;5071883;28;20081;-65
2021/03/21 00:05:46;;;;;;;6.55;2.38;;;9.00;89.00;;;;;;5072390;28;20028;-65
2021/03/21 00:08:23;;;;;;;11.40;2.90;;;9.00;89.00;;;;;;5072413;28;20464;-65
2021/03/21 00:10:54;;;;;;;9.63;3.80;;;9.00;89.10;;;;;;5071820;28;20078;-65
2021/03/21 00:13:21;;;;;;;5.97;2.55;;;9.00;89.10;;;;;;5059438;28;20028;-65
2021/03/21 00:15:48;;;;;;;15.48;4.80;;;9.00;89.70;;;;;;5071261;28;20033;-65
2021/03/21 00:18:15;;;;;;;10.27;2.92;;;9.00;89.30;;;;;;5071425;28;20047;-65
2021/03/21 00:20:41;;;;;;;19.23;3.90;;;9.00;89.10;;;;;;5072624;28;20047;-65
2021/03/21 00:23:07;;;;;;;3.65;2.55;;;9.00;89.10;;;;;;5072197;28;20090;-65
2021/03/21 00:25:39;;;;;;;15.65;5.80;;;9.00;89.10;;;;;;5071761;28;20021;-65
2021/03/21 00:28:09;;;;;;;5.82;3.05;;;9.00;89.40;;;;;;5072243;28;20601;-65
2021/03/21 00:30:40;;;;;;;5.38;3.10;;;8.90;89.20;;;;;;5072240;28;20391;-65
2021/03/21 00:33:08;;;;;;;7.68;3.80;;;9.00;89.30;;;;;;5071598;28;20036;-65
2021/03/21 00:35:34;;;;;;;3.40;2.05;;;8.90;89.20;;;;;;5072456;28;20036;-65
2021/03/21 00:38:02;;;;;;;8.02;3.55;;;9.00;89.30;;;;;;5072122;28;20045;-65
2021/03/21 00:40:29;;;;;;;10.85;4.70;;;9.00;89.30;;;;;;5071634;28;20025;-65
2021/03/21 00:42:58;;;;;;;11.15;4.38;;;9.00;89.20;;;;;;5072134;28;20035;-65
2021/03/21 00:45:25;;;;;;;9.43;3.33;;;9.00;89.40;;;;;;5071573;28;20020;-65
2021/03/21 00:47:53;;;;;;;11.57;4.18;;;9.00;89.40;;;;;;5072092;28;20056;-65
2021/03/21 00:50:24;;;;;;;10.00;2.75;;;9.00;89.40;;;;;;5071902;28;20029;-65
2021/03/21 00:52:50;;;;;;;10.30;4.10;;;9.00;89.40;;;;;;5070189;28;20026;-65
2021/03/21 00:55:16;;;;;;;10.32;4.53;;;8.90;89.40;;;;;;5071834;28;20025;-65
2021/03/21 00:57:42;;;;;;;6.55;3.58;;;9.00;89.40;;;;;;5071710;28;20150;-65
2021/03/21 01:00:25;;;;;;;11.70;4.55;;;9.00;89.50;;;;;;5071472;28;20027;-65
2021/03/21 01:02:51;;;;;;;7.25;3.80;;;8.90;89.50;;;;;;5071493;28;20043;-65
2021/03/21 01:05:29;;;;;;;11.93;5.20;;;8.90;89.50;;;;;;5073489;28;20108;-65
2021/03/21 01:07:56;;;;;;;11.35;3.97;;;9.00;89.60;;;;;;5074698;28;20123;-65
2021/03/21 01:10:26;;;;;;;4.55;2.45;;;8.90;89.50;;;;;;5075425;28;20103;-65
2021/03/21 01:12:53;;;;;;;6.80;3.03;;;9.00;89.50;;;;;;5075570;28;20120;-65
2021/03/21 01:15:20;;;;;;;9.52;3.63;;;9.00;89.60;;;;;;5074860;28;20037;-65
2021/03/21 01:17:46;;;;;;;13.50;5.55;;;9.00;89.50;;;;;;5075138;28;20040;-65
2021/03/21 01:20:12;;;;;;;12.25;5.30;;;9.00;89.60;;;;;;5075250;28;20472;-65
2021/03/21 01:22:38;;;;;;;8.27;4.25;;;9.00;89.70;;;;;;5074905;28;20024;-65
2021/03/21 01:25:05;;;;;;;11.57;4.53;;;9.10;89.90;;;;;;5074975;28;20074;-65
2021/03/21 01:27:31;;;;;;;9.05;4.85;;;9.10;89.80;;;;;;5075278;28;20052;-65
2021/03/21 01:29:56;;;;;;;12.93;4.70;;;9.10;89.70;;;;;;5074382;28;20074;-65
2021/03/21 01:32:22;;;;;;;14.98;4.32;;;9.10;89.70;;;;;;5075288;28;20042;-65
2021/03/21 01:34:48;;;;;;;11.32;4.22;;;9.10;89.60;;;;;;5074338;28;20507;-65
2021/03/21 01:37:16;;;;;;;15.02;6.03;;;9.10;89.40;;;;;;5074900;28;20041;-65
2021/03/21 01:39:42;;;;;;;7.85;2.80;;;9.10;89.20;;;;;;5074904;28;20032;-65
2021/03/21 01:42:10;;;;;;;14.20;4.10;;;9.10;89.00;;;;;;5074280;28;20051;-65
2021/03/21 01:44:36;;;;;;;13.82;3.88;;;9.10;88.90;;;;;;5075005;28;20383;-65
2021/03/21 01:47:13;;;;;;;13.93;3.88;;;9.10;88.80;;;;;;5074762;28;20155;-65
2021/03/21 01:49:43;;;;;;;12.50;4.10;;;9.10;88.80;;;;;;5074149;28;20070;-66
2021/03/21 01:52:31;;;;;;;5.50;2.03;;;9.10;89.30;;;;;;5074481;28;20494;-65
2021/03/21 01:55:00;;;;;;;13.68;3.83;;;9.10;88.70;;;;;;5074110;28;20513;-65
2021/03/21 01:57:27;;;;;;;11.77;4.05;;;9.10;88.70;;;;;;5073582;28;20048;-65
2021/03/21 01:59:56;;;;;;;6.47;2.28;;;9.10;88.70;;;;;;5074509;28;20097;-65
2021/03/21 02:02:22;;;;;;;12.50;3.75;;;9.10;88.40;;;;;;5074341;28;20025;-65
2021/03/21 02:04:48;;;;;;;8.57;3.13;;;9.10;88.40;;;;;;5073851;28;20043;-65
2021/03/21 02:07:41;;;;;;;10.98;4.22;;;9.10;88.40;;;;;;5074685;28;20028;-65
2021/03/21 02:10:37;;;;;;;11.20;3.70;;;9.10;88.30;;;;;;5074086;28;20729;-65
2021/03/21 02:13:28;;;;;;;11.75;4.40;;;9.10;88.00;;;;;;5074547;28;20028;-65
2021/03/21 02:16:06;;;;;;;9.77;3.10;;;9.10;88.00;;;;;;5072652;28;20514;-65
2021/03/21 02:19:01;;;;;;;6.13;1.85;;;9.10;87.90;;;;;;5073512;28;20494;-65
2021/03/21 02:21:58;;;;;;;9.80;3.22;;;9.10;87.90;;;;;;5073949;28;20092;-65
2021/03/21 02:24:30;;;;;;;9.20;3.20;;;9.10;87.80;;;;;;5071171;28;20119;-65
2021/03/21 02:27:22;;;;;;;10.77;3.08;;;9.10;87.70;;;;;;5074124;28;20029;-65
2021/03/21 02:30:10;;;;;;;5.82;2.47;;;9.10;87.60;;;;;;5074016;28;20024;-65
2021/03/21 02:33:09;;;;;;;10.48;2.65;;;9.10;87.60;;;;;;5073541;28;20086;-65
2021/03/21 02:35:56;;;;;;;17.30;3.50;;;9.10;87.70;;;;;;5073907;28;20074;-65
2021/03/21 02:38:32;;;;;;;10.77;2.65;;;9.10;87.80;;;;;;5073045;28;20092;-65
2021/03/21 02:41:04;;;;;;;9.18;2.25;;;9.10;87.90;;;;;;5073807;28;20036;-65
2021/03/21 02:43:49;;;;;;;12.93;2.70;;;9.10;87.90;;;;;;5073519;28;20434;-65
2021/03/21 02:46:25;;;;;;;16.10;3.83;;;9.10;88.20;;;;;;5073081;28;20154;-65
2021/03/21 02:49:02;;;;;;;10.40;2.22;;;9.20;88.20;;;;;;5073587;28;20036;-65
2021/03/21 02:51:33;;;;;;;21.38;3.35;;;9.20;88.40;;;;;;5072343;28;20036;-65
2021/03/21 02:54:07;;;;;;;20.38;3.63;;;9.10;88.30;;;;;;5072670;28;20040;-65
2021/03/21 02:56:33;;;;;;;11.40;3.00;;;9.10;88.50;;;;;;5073489;28;20082;-65
2021/03/21 02:59:12;;;;;;;15.70;3.10;;;9.10;88.50;;;;;;5072800;28;20052;-66
2021/03/21 03:01:45;;;;;;;13.68;2.70;;;9.10;88.60;;;;;;5073630;28;20052;-65
2021/03/21 03:04:20;;;;;;;19.45;4.28;;;9.10;88.40;;;;;;5073387;28;20040;-65
2021/03/21 03:06:51;;;;;;;8.27;1.85;;;9.10;88.30;;;;;;5072750;28;20040;-66
2021/03/21 03:09:25;;;;;;;9.20;2.10;;;9.10;88.30;;;;;;5073095;28;20060;-65
2021/03/21 03:11:56;;;;;;;10.30;1.80;;;9.10;88.30;;;;;;5073604;28;20044;-65
2021/03/21 03:14:34;;;;;;;19.65;3.50;;;9.00;88.30;;;;;;5071471;28;20478;-65
2021/03/21 03:17:21;;;;;;;23.17;3.45;;;9.00;88.40;;;;;;5065133;28;20454;-65
2021/03/21 03:20:23;;;;;;;7.50;1.95;;;9.00;88.30;;;;;;5069406;28;20115;-65
2021/03/21 03:22:59;;;;;;;9.57;1.90;;;9.00;88.30;;;;;;5057374;28;20025;-65
2021/03/21 03:25:30;;;;;;;13.18;1.98;;;9.00;88.40;;;;;;5066875;28;20028;-65
2021/03/21 03:28:34;;;;;;;18.67;2.95;;;9.00;88.40;;;;;;5060256;28;20032;-65
2021/03/21 03:31:17;;;;;;;20.73;2.22;;;9.00;88.40;;;;;;5072790;28;20112;-65
2021/03/21 03:33:43;;;;;;;14.83;2.23;;;9.00;88.30;;;;;;5072771;28;20033;-65
2021/03/21 03:36:18;;;;;;;3.72;1.50;;;9.00;88.30;;;;;;5051749;28;20271;-65
2021/03/21 03:38:46;;;;;;;31.17;4.72;;;9.00;88.40;;;;;;5052456;28;20049;-65
2021/03/21 03:41:40;;;;;;;13.95;3.08;;;9.00;88.30;;;;;;5072222;28;20099;-65
2021/03/21 03:44:15;;;;;;;8.55;2.05;;;9.00;88.30;;;;;;5069723;28;20127;-65
2021/03/21 03:46:47;;;;;;;23.73;3.92;;;9.00;88.20;;;;;;5072722;28;20112;-65
2021/03/21 03:49:24;;;;;;;11.07;1.92;;;8.90;88.30;;;;;;5071777;28;20472;-65
2021/03/21 03:52:19;;;;;;;21.02;3.78;;;9.00;88.40;;;;;;5064338;28;20042;-65
2021/03/21 03:55:03;;;;;;;3.70;0.90;;;9.00;88.40;;;;;;5052294;28;20033;-65
2021/03/21 03:57:48;;;;;;;10.80;1.48;;;9.00;88.30;;;;;;5064991;28;20101;-65
2021/03/21 04:00:21;;;;;;;13.52;2.13;;;9.00;88.20;;;;;;5072937;28;20040;-65
2021/03/21 04:02:53;;;;;;;10.00;1.70;;;9.10;87.90;;;;;;5071667;28;20479;-65
2021/03/21 04:05:27;;;;;;;21.42;2.63;;;9.10;87.80;;;;;;5072557;28;20385;-65
2021/03/21 04:08:25;;;;;;;4.70;1.70;;;9.10;87.30;;;;;;5072554;28;20044;-65
2021/03/21 04:11:08;;;;;;;5.82;1.20;;;9.00;87.60;;;;;;5064034;28;20032;-65
2021/03/21 04:13:49;;;;;;;3.95;1.92;;;9.00;87.70;;;;;;5072376;28;20242;-65
2021/03/21 04:16:19;;;;;;;3.15;1.05;;;9.00;87.70;;;;;;5072413;28;20489;-65
2021/03/21 04:18:52;;;;;;;10.73;1.63;;;9.10;87.50;;;;;;5071672;28;20522;-65
2021/03/21 04:21:39;;;;;;;19.15;3.08;;;9.00;87.30;;;;;;5072359;28;20033;-65
2021/03/21 04:24:41;;;;;;;6.47;1.25;;;9.10;87.30;;;;;;5059456;28;20032;-65
2021/03/21 04:27:17;;;;;;;12.48;2.10;;;9.20;87.20;;;;;;5058011;28;20037;-65
2021/03/21 04:29:48;;;;;;;6.15;1.63;;;9.20;86.90;;;;;;5072465;28;20024;-65
2021/03/21 04:32:19;;;;;;;10.00;1.98;;;9.20;86.80;;;;;;5071405;28;20510;-65
2021/03/21 04:34:50;;;;;;;15.25;2.03;;;9.20;86.40;;;;;;5072077;28;20587;-65
2021/03/21 04:37:18;;;;;;;5.85;1.40;;;9.20;86.20;;;;;;5072284;28;20025;-65
2021/03/21 04:39:45;;;;;;;5.85;1.60;;;9.20;86.30;;;;;;5072096;28;20032;-65
2021/03/21 04:42:21;;;;;;;12.95;2.78;;;9.20;86.20;;;;;;5076031;28;20365;-65
2021/03/21 04:44:49;;;;;;;10.32;2.20;;;9.20;86.30;;;;;;5075226;28;20444;-65
2021/03/21 04:47:18;;;;;;;15.50;2.22;;;9.20;85.90;;;;;;5075824;28;20032;-65
2021/03/21 04:49:44;;;;;;;7.47;1.10;;;9.30;85.90;;;;;;5075857;28;20044;-64
2021/03/21 04:52:40;;;;;;;8.02;1.67;;;9.30;85.80;;;;;;5075114;28;20067;-65
2021/03/21 04:55:13;;;;;;;15.05;2.95;;;9.30;86.00;;;;;;5075716;28;20060;-65
2021/03/21 04:57:47;;;;;;;13.65;2.20;;;9.30;84.90;;;;;;5075715;28;20057;-65
2021/03/21 05:00:24;;;;;;;11.65;2.60;;;9.30;85.10;;;;;;5075273;28;20025;-65
2021/03/21 05:02:54;;;;;;;9.35;1.77;;;9.30;85.10;;;;;;5074385;28;20035;-65
2021/03/21 05:05:33;;;;;;;12.18;1.95;;;9.40;85.20;;;;;;5075723;28;20112;-65
2021/03/21 05:08:22;;;;;;;19.35;2.78;;;9.40;84.90;;;;;;5074839;28;20036;-65
2021/03/21 05:10:52;;;;;;;12.93;2.67;;;9.40;84.60;;;;;;5075688;28;20025;-65
2021/03/21 05:13:28;;;;;;;16.40;2.78;;;9.40;84.30;;;;;;5074918;28;20488;-65
2021/03/21 05:16:04;;;;;;;15.60;3.30;;;9.40;84.60;;;;;;5075451;28;20041;-65
2021/03/21 05:18:48;;;;;;;15.45;2.80;;;9.40;84.60;;;;;;5062604;28;20037;-65
2021/03/21 05:21:33;;;;;;;9.10;2.97;;;9.30;84.40;;;;;;5074610;28;20040;-65
2021/03/21 05:24:11;;;;;;;10.43;1.75;;;9.40;84.50;;;;;;5075105;28;20036;-65
2021/03/21 05:26:58;;;;;;;14.40;2.30;;;9.40;84.50;;;;;;5061425;28;20070;-65
2021/03/21 05:29:36;;;;;;;7.78;2.08;;;9.40;84.30;;;;;;5064235;28;20024;-66
2021/03/21 05:32:02;;;;;;;15.63;2.25;;;9.40;84.20;;;;;;5071929;28;20060;-65
2021/03/21 05:34:28;;;;;;;6.57;2.25;;;9.30;83.30;;;;;;5073581;28;20090;-65
2021/03/21 05:37:36;;;;;;;10.20;3.38;;;9.20;83.80;;;;;;5073766;28;20028;-65
2021/03/21 05:40:22;;;;;;;9.57;1.88;;;9.10;84.00;;;;;;5028578;28;20056;-65
2021/03/21 05:42:50;;;;;;;13.18;1.98;;;9.10;84.50;;;;;;5015134;28;20076;-65
2021/03/21 05:45:35;;;;;;;7.22;2.22;;;9.10;84.70;;;;;;5056955;28;20093;-65
2021/03/21 05:48:23;;;;;;;15.43;4.30;;;9.10;84.80;;;;;;5073079;28;20051;-65
2021/03/21 05:51:20;;;;;;;11.27;1.85;;;9.10;84.90;;;;;;5070379;28;20032;-65
2021/03/21 05:54:18;;;;;;;6.72;1.42;;;9.00;84.80;;;;;;5073407;28;20025;-65
2021/03/21 05:57:15;;;;;;;18.02;3.42;;;9.00;84.90;;;;;;5071350;28;20040;-65
2021/03/21 06:00:10;;;;;;;16.58;4.68;;;9.00;84.60;;;;;;5072500;28;20123;-65
2021/03/21 06:03:00;;;;;;;11.60;2.17;;;9.00;84.60;;;;;;5030297;28;20029;-65
2021/03/21 06:05:43;;;;;;;23.08;2.90;;;9.00;85.10;;;;;;5073824;28;20024;-65
2021/03/21 06:08:27;;;;;;;15.23;3.60;;;9.00;84.60;;;;;;5073112;28;20090;-65
2021/03/21 06:11:11;;;;;;;14.40;2.35;;;8.90;84.60;;;;;;5072825;28;20032;-65
2021/03/21 06:14:07;;;;;;;13.80;3.55;;;9.00;84.40;;;;;;5071472;28;20540;-65
2021/03/21 06:17:09;;;;;;;9.40;2.78;;;9.00;84.50;;;;;;5072386;28;20395;-65
2021/03/21 06:20:11;;;;;;;25.90;2.90;;;8.90;84.40;;;;;;5071100;28;20037;-65
2021/03/21 06:22:53;;;;;;;9.93;2.40;;;9.00;84.00;;;;;;5071293;28;20066;-65
2021/03/21 06:25:44;;;;;;;14.00;3.22;;;8.90;83.90;;;;;;5068607;28;20048;-65
2021/03/21 06:28:31;;;;;;;25.98;4.93;;;8.90;83.90;;;;;;5060729;28;20028;-65
2021/03/21 06:31:15;;;;;;;13.90;2.60;;;8.90;83.90;;;;;;5053195;28;20065;-65
2021/03/21 06:34:19;;;;;;;21.20;4.25;;;8.90;84.10;;;;;;5066050;28;20044;-65
2021/03/21 06:37:16;;;;;;;22.23;2.33;;;8.90;83.90;;;;;;5066646;28;20086;-66
2021/03/21 06:39:56;;;;;;;28.38;4.97;;;8.90;83.90;;;;;;5063435;28;20037;-65
2021/03/21 06:42:35;;;;;;;18.85;2.78;;;8.80;83.80;;;;;;5069750;28;20111;-65
2021/03/21 06:45:12;;;;;;;24.77;3.60;;;8.80;84.10;;;;;;5067888;28;20034;-65
2021/03/21 06:47:59;;;;;;;7.40;1.83;;;8.90;83.70;;;;;;5068642;28;20024;-65
2021/03/21 06:50:54;;;;;;;25.65;4.80;;;8.90;84.10;;;;;;5065921;28;20024;-65
2021/03/21 06:53:38;;;;;;;22.13;2.92;;;8.90;84.10;;;;;;5065934;28;20064;-64
2021/03/21 06:56:32;;;;;;;20.63;5.93;;;8.90;84.10;;;;;;5064411;28;20179;-64
2021/03/21 06:59:32;;;;;;;12.07;2.53;;;8.80;83.70;;;;;;5060830;28;20053;-64
2021/03/21 07:02:22;;;;;;;9.35;2.35;;;8.90;83.80;;;;;;5067015;28;20032;-64
2021/03/21 07:05:09;;;;;;;13.32;2.80;;;8.90;83.90;;;;;;5065968;28;20400;-64
2021/03/21 07:07:56;;;;;;;5.40;2.33;;;8.90;83.80;;;;;;5062998;28;20078;-64
2021/03/21 07:11:10;;;;;;;22.23;3.55;;;8.90;84.30;;;;;;5069658;28;20574;-64
2021/03/21 07:14:07;;;;;;;20.67;3.85;;;8.90;83.10;;;;;;5050670;28;20476;-64
2021/03/21 07:16:54;;;;;;;11.52;2.58;;;8.90;83.00;;;;;;5065083;28;20543;-64
2021/03/21 07:19:41;;;;;;;11.38;2.60;;;8.90;83.20;;;;;;5065640;28;20037;-64
2021/03/21 07:22:19;;;;;;;12.60;3.80;;;9.00;83.50;;;;;;5058777;28;20048;-64
2021/03/21 07:25:22;;;;;;;14.63;2.22;;;9.00;83.30;;;;;;5070807;28;20044;-64
2021/03/21 07:27:51;;;;;;;13.82;1.70;;;9.00;83.20;;;;;;5072545;28;20028;-64
2021/03/21 07:30:46;;;;;;;13.32;2.25;;;9.00;83.10;;;;;;5072823;28;20025;-64
2021/03/21 07:33:25;;;;;;;10.07;2.25;;;9.10;83.20;;;;;;5072697;28;20467;-64
2021/03/21 07:36:12;;;;;;;22.98;4.07;;;9.10;82.70;;;;;;5059058;28;20128;-64
2021/03/21 07:38:37;;;;;;;30.52;5.63;;;9.10;82.30;;;;;;5072576;28;20051;-64
2021/03/21 07:41:20;;;;;;;22.70;1.77;;;9.10;82.00;;;;;;5057355;28;20029;-64
2021/03/21 07:43:51;;;;;;;4.05;2.63;;;9.20;82.30;;;;;;5069107;28;20033;-65
2021/03/21 07:46:49;;;;;;;20.55;3.00;;;9.20;82.40;;;;;;5070303;28;20028;-65
2021/03/21 07:49:30;;;;;;;29.38;2.50;;;9.20;82.30;;;;;;5066783;28;20436;-65
2021/03/21 07:52:07;;;;;;;14.98;2.95;;;9.20;82.20;;;;;;5072191;28;20028;-65
2021/03/21 07:54:39;;;;;;;28.60;5.45;;;9.30;82.20;;;;;;5085762;28;20032;-65
2021/03/21 07:57:35;;;;;;;14.30;2.88;;;9.30;81.60;;;;;;5070914;28;20035;-66
2021/03/21 08:00:03;;;;;;;14.73;4.07;;;9.20;81.90;;;;;;5070560;28;20100;-65
2021/03/21 08:02:38;;;;;;;20.98;4.65;;;9.30;81.90;;;;;;5070337;28;20063;-66
2021/03/21 08:05:12;;;;;;;13.57;3.03;;;9.20;81.70;;;;;;5069697;28;20036;-66
2021/03/21 08:07:42;;;;;;;3.08;1.15;;;9.30;82.00;;;;;;5070426;28;20043;-65
2021/03/21 08:10:32;;;;;;;20.55;2.95;;;9.30;82.20;;;;;;5070647;28;20047;-66
2021/03/21 08:13:09;;;;;;;14.38;3.05;;;9.30;82.10;;;;;;5071290;28;20546;-65
2021/03/21 08:15:37;;;;;;;21.23;3.75;;;9.30;82.00;;;;;;5073203;28;20024;-65
2021/03/21 08:18:23;;;;;;;24.88;4.75;;;9.30;82.10;;;;;;5074793;28;20037;-65
2021/03/21 08:21:05;;;;;;;16.90;3.38;;;9.30;82.20;;;;;;5075167;28;20025;-66
2021/03/21 08:23:36;;;;;;;24.38;3.05;;;9.30;82.30;;;;;;5073238;28;20081;-66
2021/03/21 08:26:05;;;;;;;11.73;2.80;;;9.30;82.20;;;;;;5074673;28;20054;-66
2021/03/21 08:28:36;;;;;;;13.90;3.17;;;9.40;82.30;;;;;;5070703;28;20028;-66
2021/03/21 08:31:10;;;;;;;23.27;4.32;;;9.40;82.70;;;;;;5071094;28;20116;-67
2021/03/21 08:33:43;;;;;;;26.73;5.45;;;9.40;82.00;;;;;;5074593;28;20036;-67
2021/03/21 08:36:19;;;;;;;23.50;3.60;;;9.40;81.70;;;;;;5072673;28;20482;-67
2021/03/21 08:39:03;;;;;;;22.02;3.58;;;9.40;81.70;;;;;;5071039;28;20294;-66
2021/03/21 08:41:31;;;;;;;12.68;3.20;;;9.50;81.60;;;;;;5072868;28;20024;-67
2021/03/21 08:44:05;;;;;;;15.88;3.25;;;9.50;81.70;;;;;;5073937;28;20049;-67
2021/03/21 08:46:33;;;;;;;23.42;4.03;;;9.40;81.40;;;;;;5074448;28;20167;-67
2021/03/21 08:49:27;;;;;;;18.55;3.47;;;9.50;82.00;;;;;;5074266;28;20488;-67
2021/03/21 08:51:53;;;;;;;19.65;2.20;;;9.50;81.80;;;;;;5065599;28;20048;-67
2021/03/21 08:54:27;;;;;;;21.95;3.88;;;9.50;82.00;;;;;;5062089;28;20089;-67
2021/03/21 08:57:04;;;;;;;;;;;9.50;81.60;;;;;;5075387;28;20680;-67
2021/03/21 08:59:39;;;;;;;13.10;3.33;;;9.60;81.70;;;;;;5070329;28;19962;-69
2021/03/21 09:02:08;;;;;;;13.95;2.55;;;9.50;81.30;;;;;;5073429;28;20534;-67
2021/03/21 09:04:43;;;;;;;25.17;4.43;;;9.50;81.70;;;;;;5074968;28;20020;-66
2021/03/21 09:07:17;;;;;;;23.27;4.65;;;9.50;81.20;;;;;;5073855;28;20033;-66
2021/03/21 09:09:42;;;;;;;;;;;9.60;81.50;;;;;;5061980;28;20037;-65
2021/03/21 09:12:30;;;;;;;17.88;2.83;;;9.60;81.90;;;;;;5074027;28;20730;-65
2021/03/21 09:15:20;;;;;;;31.25;4.07;;;9.60;81.60;;;;;;5074167;28;20036;-65
2021/03/21 09:18:13;;;;;;;12.07;4.05;;;9.60;81.50;;;;;;5072288;28;20033;-66
2021/03/21 09:20:43;;;;;;;22.00;3.40;;;9.60;81.40;;;;;;5069697;28;20042;-66
2021/03/21 09:23:33;;;;;;;39.38;4.25;;;9.70;81.20;;;;;;5061121;28;20089;-65
2021/03/21 09:26:00;;;;;;;9.55;2.25;;;9.70;81.10;;;;;;5068662;28;20167;-65
2021/03/21 09:28:32;;;;;;;10.23;2.70;;;9.70;81.20;;;;;;5070438;28;20486;-66
2021/03/21 09:31:10;;;;;;;13.00;5.07;;;9.70;81.50;;;;;;5070235;28;20040;-66
2021/03/21 09:33:44;;;;;;;37.17;5.45;;;9.70;81.40;;;;;;5071238;28;20085;-66
2021/03/21 09:36:12;;;;;;;;;;;9.80;80.50;;;;;;5063444;28;20036;-66
2021/03/21 09:39:05;;;;;;;22.90;4.18;;;9.80;81.20;;;;;;5072004;28;20368;-65
2021/03/21 09:41:31;;;;;;;30.50;5.40;;;9.80;80.90;;;;;;5072246;28;20040;-67
2021/03/21 09:44:25;;;;;;;22.17;3.40;;;9.80;80.50;;;;;;5073624;28;20040;-65
2021/03/21 09:47:17;;;;;;;26.20;4.32;;;9.80;80.90;;;;;;5063892;28;20037;-66
2021/03/21 09:49:57;;;;;;;22.05;4.38;;;9.80;80.30;;;;;;5070854;28;20526;-65
2021/03/21 09:52:41;;;;;;;29.73;5.22;;;9.80;80.90;;;;;;5067639;28;20415;-66
2021/03/21 09:55:13;;;;;;;18.45;3.47;;;9.70;79.90;;;;;;5066653;28;20029;-65
2021/03/21 09:57:52;;;;;;;18.92;3.80;;;9.80;80.70;;;;;;5071006;28;20090;-66
2021/03/21 10:00:25;;;;;;;11.98;2.47;;;9.80;80.70;;;;;;5069109;28;20036;-66
2021/03/21 10:03:05;;;;;;;21.05;4.63;;;9.80;81.20;;;;;;5065807;28;20024;-65
2021/03/21 10:05:55;;;;;;;34.60;5.32;;;9.80;80.70;;;;;;5069200;28;20148;-65
2021/03/21 10:08:52;;;;;;;31.95;4.03;;;9.80;80.00;;;;;;5070993;28;20024;-65
2021/03/21 10:11:42;;;;;;;31.92;5.22;;;9.80;80.20;;;;;;5073792;28;20082;-65
2021/03/21 10:14:26;;;;;;;35.78;4.72;;;9.90;78.90;;;;;;5072874;28;20051;-65
2021/03/21 10:16:56;;;;;;;33.03;4.30;;;9.80;79.20;;;;;;5068874;28;20024;-65
2021/03/21 10:19:49;;;;;;;23.70;3.60;;;9.80;79.20;;;;;;5072295;28;20040;-65
2021/03/21 10:22:20;;;;;;;36.83;4.15;;;9.90;79.80;;;;;;5068400;28;20407;-65
2021/03/21 10:24:54;;;;;;;23.95;3.53;;;9.90;80.40;;;;;;5070414;28;20093;-65
2021/03/21 10:27:25;;;;;;;30.70;5.85;;;9.90;80.00;;;;;;5068489;28;20036;-66
2021/03/21 10:29:51;;;;;;;32.08;4.38;;;9.90;79.20;;;;;;5067031;28;20702;-66
2021/03/21 10:32:29;;;;;;;24.02;4.13;;;9.90;79.60;;;;;;5068953;28;20021;-68
2021/03/21 10:34:55;;;;;;;36.08;6.65;;;10.00;79.40;;;;;;5069587;28;20408;-73
2021/03/21 10:37:48;;;;;;;22.55;4.45;;;10.00;78.70;;;;;;5067333;28;20035;-72
2021/03/21 10:40:23;;;;;;;33.28;4.88;;;10.00;78.80;;;;;;5069595;28;20048;-67
2021/03/21 10:42:52;;;;;;;23.65;4.72;;;10.00;78.80;;;;;;5069464;28;20031;-67
2021/03/21 10:45:39;;;;;;;22.35;3.08;;;10.00;78.70;;;;;;5061338;28;20361;-67
2021/03/21 10:48:31;;;;;;;21.95;3.85;;;10.10;78.90;;;;;;5058908;28;20091;-67
2021/03/21 10:51:01;;;;;;;25.88;5.88;;;10.10;79.20;;;;;;5057002;28;20031;-67
2021/03/21 10:53:29;;;;;;;29.58;4.90;;;10.10;79.00;;;;;;5055787;28;20029;-67
2021/03/21 10:56:20;;;;;;;37.40;4.72;;;10.10;79.00;;;;;;5060889;28;20035;-66
2021/03/21 10:58:46;;;;;;;31.30;4.70;;;10.20;78.70;;;;;;5070150;28;20492;-67
2021/03/21 11:01:22;;;;;;;29.00;4.47;;;10.20;79.00;;;;;;5064062;28;20025;-67
2021/03/21 11:03:56;;;;;;;13.60;2.95;;;10.20;78.70;;;;;;5064061;28;20036;-67
2021/03/21 11:06:24;;;;;;;19.98;4.00;;;10.20;79.70;;;;;;5068092;28;20035;-67
2021/03/21 11:08:50;;;;;;;21.75;4.05;;;10.20;78.70;;;;;;5071847;28;20037;-66
2021/03/21 11:11:33;;;;;;;22.27;3.45;;;10.30;79.10;;;;;;5066356;28;20039;-65
2021/03/21 11:14:11;;;;;;;21.98;4.82;;;10.30;79.00;;;;;;5066926;28;20031;-66
2021/03/21 11:16:37;;;;;;;19.30;3.78;;;10.30;78.90;;;;;;5065123;28;20032;-66
2021/03/21 11:19:14;;;;;;;30.10;5.32;;;10.30;79.60;;;;;;5070690;28;20392;-66
2021/03/21 11:21:42;;;;;;;43.53;3.97;;;10.30;78.80;;;;;;5061089;28;20037;-64
2021/03/21 11:24:27;;;;;;;41.17;6.28;;;10.40;79.20;;;;;;5063495;28;20040;-73
2021/03/21 11:26:53;;;;;;;22.23;3.75;;;10.40;78.00;;;;;;5057861;28;20137;-67
2021/03/21 11:29:23;;;;;;;19.85;4.05;;;10.40;78.00;;;;;;5053613;28;20115;-66
2021/03/21 11:31:51;;;;;;;17.98;3.35;;;10.40;78.30;;;;;;5053992;28;20033;-65
2021/03/21 11:34:22;;;;;;;14.13;3.30;;;10.40;78.70;;;;;;5059118;28;20020;-65
2021/03/21 11:36:57;;;;;;;32.70;4.63;;;10.50;78.90;;;;;;5059545;28;20039;-66
2021/03/21 11:39:39;;;;;;;24.23;3.55;;;10.50;78.80;;;;;;5053404;28;20048;-67
2021/03/21 11:42:22;;;;;;;30.17;4.80;;;10.50;78.20;;;;;;5056899;28;20051;-66
2021/03/21 11:44:51;;;;;;;24.92;3.95;;;10.50;78.10;;;;;;5062514;28;20082;-68
2021/03/21 11:47:25;;;;;;;15.07;3.83;;;10.60;78.80;;;;;;5055482;28;20025;-66
2021/03/21 11:49:53;;;;;;;11.60;2.13;;;10.60;79.10;;;;;;5065227;28;20032;-66
2021/03/21 11:52:19;;;;;;;26.20;3.97;;;10.60;79.00;;;;;;5068828;28;20049;-66
2021/03/21 11:54:45;;;;;;;18.90;4.28;;;10.60;77.90;;;;;;5069705;28;20115;-66
2021/03/21 11:57:22;;;;;;;6.60;2.45;;;10.60;78.60;;;;;;5070179;28;20024;-65
2021/03/21 12:00:06;;;;;;;20.02;3.80;;;10.60;79.80;;;;;;5066261;28;20087;-65
2021/03/21 12:02:59;;;;;;;10.52;1.92;;;10.60;79.70;;;;;;5066789;28;20399;-66
2021/03/21 12:05:28;;;;;;;12.43;2.67;;;10.70;79.80;;;;;;5078560;28;20044;-66
2021/03/21 12:08:13;;;;;;;22.27;3.80;;;10.70;79.20;;;;;;5057821;28;20450;-66
2021/03/21 12:10:41;;;;;;;22.25;3.38;;;10.70;79.00;;;;;;5065399;28;20384;-66
2021/03/21 12:13:28;;;;;;;27.58;3.53;;;10.80;79.40;;;;;;5069066;28;20028;-66
2021/03/21 12:15:55;;;;;;;16.17;2.83;;;10.80;78.90;;;;;;5064185;28;20040;-67
2021/03/21 12:18:24;;;;;;;17.65;3.65;;;10.80;78.60;;;;;;5070484;28;20086;-66
2021/03/21 12:21:08;;;;;;;22.23;3.15;;;10.80;79.30;;;;;;5058331;28;20036;-66
2021/03/21 12:23:53;;;;;;;25.02;3.63;;;10.80;79.10;;;;;;5066112;28;20040;-64
2021/03/21 12:26:21;;;;;;;38.97;6.07;;;10.80;79.40;;;;;;5058425;28;20025;-67
2021/03/21 12:28:58;;;;;;;24.20;4.80;;;10.90;78.40;;;;;;5064506;28;20048;-67
2021/03/21 12:31:27;;;;;;;27.17;4.03;;;10.90;79.20;;;;;;5068830;28;20016;-67
2021/03/21 12:33:53;;;;;;;19.85;4.05;;;10.80;78.00;;;;;;5066898;28;20036;-67
2021/03/21 12:36:26;;;;;;;24.23;5.40;;;10.90;77.90;;;;;;5065759;28;20055;-66
2021/03/21 12:39:29;;;;;;;17.30;3.00;;;10.90;77.90;;;;;;5061711;28;20524;-66
2021/03/21 12:41:54;;;;;;;30.55;5.97;;;10.90;78.10;;;;;;5062804;28;20032;-67
2021/03/21 12:44:29;;;;;;;29.05;4.90;;;10.90;77.30;;;;;;5067398;28;20025;-67
2021/03/21 12:47:17;;;;;;;20.20;4.47;;;10.90;77.00;;;;;;5064662;28;20040;-67
2021/03/21 12:49:51;;;;;;;23.58;3.08;;;11.00;77.50;;;;;;5058396;28;20037;-67
2021/03/21 12:52:21;;;;;;;16.48;2.90;;;11.00;77.50;;;;;;5060544;28;20071;-67
2021/03/21 12:54:47;;;;;;;21.67;4.03;;;11.00;78.00;;;;;;5069358;28;20029;-67
2021/03/21 12:57:14;;;;;;;11.65;2.47;;;11.00;78.90;;;;;;5060117;28;20071;-67
2021/03/21 12:59:52;;;;;;;28.20;4.05;;;11.00;79.20;;;;;;5066151;28;20049;-67
2021/03/21 13:02:20;;;;;;;24.38;4.25;;;11.00;78.00;;;;;;5056189;28;20364;-67
2021/03/21 13:04:46;;;;;;;24.48;4.50;;;11.00;77.80;;;;;;5055369;28;20086;-68
2021/03/21 13:07:12;;;;;;;22.40;4.20;;;11.10;77.50;;;;;;5067550;28;20507;-67
2021/03/21 13:09:39;;;;;;;30.92;4.20;;;11.10;77.20;;;;;;5073210;28;20044;-67
2021/03/21 13:12:05;;;;;;;12.45;2.92;;;11.20;77.10;;;;;;5065099;28;20511;-67
2021/03/21 13:14:31;;;;;;;20.17;4.15;;;11.20;77.80;;;;;;5071808;28;20028;-68
2021/03/21 13:16:57;;;;;;;16.48;3.63;;;11.20;77.00;;;;;;5073202;28;20042;-67
2021/03/21 13:19:22;;;;;;;9.75;2.83;;;11.20;77.10;;;;;;5072459;28;20052;-67
2021/03/21 13:21:48;;;;;;;5.68;1.95;;;11.20;78.10;;;;;;5069436;28;20103;-67
2021/03/21 13:24:14;;;;;;;18.98;3.38;;;11.20;79.70;;;;;;5066838;28;20037;-67
2021/03/21 13:26:40;;;;;;;19.73;3.30;;;11.10;80.80;;;;;;5070647;28;20112;-68
2021/03/21 13:29:06;;;;;;;22.50;3.60;;;11.20;81.60;;;;;;5073310;28;20107;-67
2021/03/21 13:31:32;;;;;;;17.95;2.88;;;11.20;82.10;;;;;;5064782;28;20024;-67
2021/03/21 13:33:57;;;;;;;14.10;4.18;;;11.20;82.00;;;;;;5070067;28;20052;-67
2021/03/21 13:36:23;;;;;;;28.45;5.18;;;11.20;82.70;;;;;;5066352;28;20029;-66
2021/03/21 13:38:49;;;;;;;13.15;2.08;;;11.20;79.80;;;;;;5068752;28;20076;-65